createdAt,value
2019-01-08T00:00:00.436Z,20.032043
2019-01-08T00:00:04.869Z,20.032043
2019-01-08T00:00:08.309Z,20.042114
2019-01-08T00:00:11.746Z,20.032043
2019-01-08T00:00:15.246Z,20.032043
2019-01-08T00:00:18.684Z,20.042114
2019-01-08T00:00:22.132Z,20.042114
2019-01-08T00:00:25.573Z,20.032043
2019-01-08T00:00:29.022Z,20.042114
2019-01-08T00:00:32.462Z,20.032043
2019-01-08T00:00:35.896Z,20.042114
2019-01-08T00:00:39.333Z,20.042114
2019-01-08T00:00:42.787Z,20.042114
2019-01-08T00:00:46.251Z,20.032043
2019-01-08T00:00:49.716Z,20.042114
2019-01-08T00:00:53.152Z,20.032043
2019-01-08T00:00:56.587Z,20.042114
2019-01-08T00:01:00.025Z,20.042114
2019-01-08T00:01:03.460Z,20.042114
2019-01-08T00:01:06.905Z,20.042114
2019-01-08T00:01:10.358Z,20.032043
2019-01-08T00:01:13.843Z,20.042114
2019-01-08T00:01:17.237Z,20.042114
2019-01-08T00:01:20.666Z,20.042114
2019-01-08T00:01:24.146Z,20.042114
2019-01-08T00:01:27.589Z,20.032043
2019-01-08T00:01:31.034Z,20.042114
2019-01-08T00:01:34.471Z,20.042114
2019-01-08T00:01:37.928Z,20.032043
2019-01-08T00:01:41.359Z,20.042114
2019-01-08T00:01:44.811Z,20.032043
2019-01-08T00:01:48.246Z,20.032043
2019-01-08T00:01:51.690Z,20.042114
2019-01-08T00:01:55.127Z,20.042114
2019-01-08T00:01:58.573Z,20.042114
2019-01-08T00:02:02.030Z,20.032043
2019-01-08T00:02:05.467Z,20.032043
2019-01-08T00:02:08.915Z,20.021973
2019-01-08T00:02:12.364Z,20.042114
2019-01-08T00:02:15.813Z,20.032043
2019-01-08T00:02:20.246Z,20.032043
2019-01-08T00:02:23.683Z,20.032043
2019-01-08T00:02:27.132Z,20.042114
2019-01-08T00:02:30.568Z,20.032043
2019-01-08T00:02:34.012Z,20.042114
2019-01-08T00:02:37.442Z,20.072327
2019-01-08T00:02:40.951Z,20.042114
2019-01-08T00:02:44.400Z,20.032043
2019-01-08T00:02:47.838Z,20.042114
2019-01-08T00:02:51.284Z,20.042114
2019-01-08T00:02:54.739Z,20.042114
2019-01-08T00:02:58.185Z,20.072327
2019-01-08T00:03:01.620Z,20.032043
2019-01-08T00:03:05.061Z,20.042114
2019-01-08T00:03:08.506Z,20.042114
2019-01-08T00:03:11.951Z,20.042114
2019-01-08T00:03:15.388Z,20.042114
2019-01-08T00:03:18.844Z,20.072327
2019-01-08T00:03:22.308Z,20.042114
2019-01-08T00:03:25.750Z,20.042114
2019-01-08T00:03:29.209Z,20.042114
2019-01-08T00:03:32.648Z,20.032043
2019-01-08T00:03:36.078Z,20.042114
2019-01-08T00:03:39.514Z,20.042114
2019-01-08T00:03:42.976Z,20.042114
2019-01-08T00:03:46.412Z,20.042114
2019-01-08T00:03:49.864Z,20.042114
2019-01-08T00:03:53.305Z,20.042114
2019-01-08T00:03:56.761Z,20.032043
2019-01-08T00:04:00.176Z,20.042114
2019-01-08T00:04:03.635Z,20.042114
2019-01-08T00:04:07.072Z,20.072327
2019-01-08T00:04:10.513Z,20.042114
2019-01-08T00:04:13.954Z,20.072327
2019-01-08T00:04:17.395Z,20.042114
2019-01-08T00:04:20.840Z,20.042114
2019-01-08T00:04:24.285Z,20.042114
2019-01-08T00:04:27.731Z,20.042114
2019-01-08T00:04:31.162Z,20.042114
2019-01-08T00:04:34.608Z,20.072327
2019-01-08T00:04:38.057Z,20.072327
2019-01-08T00:04:41.496Z,20.042114
2019-01-08T00:04:44.948Z,20.072327
2019-01-08T00:04:48.432Z,20.042114
2019-01-08T00:04:51.873Z,20.042114
2019-01-08T00:04:55.321Z,20.042114
2019-01-08T00:04:58.837Z,20.042114
2019-01-08T00:05:02.202Z,20.042114
2019-01-08T00:05:05.648Z,20.072327
2019-01-08T00:05:09.088Z,20.042114
2019-01-08T00:05:12.530Z,20.042114
2019-01-08T00:05:15.969Z,20.042114
2019-01-08T00:05:19.409Z,20.032043
2019-01-08T00:05:22.839Z,20.042114
2019-01-08T00:05:26.277Z,20.072327
2019-01-08T00:05:29.722Z,20.042114
2019-01-08T00:05:33.175Z,20.072327
2019-01-08T00:05:36.677Z,20.042114
2019-01-08T00:05:40.429Z,20.072327
2019-01-08T00:05:43.883Z,20.072327
2019-01-08T00:05:47.309Z,20.042114
2019-01-08T00:05:50.744Z,20.032043
2019-01-08T00:05:54.186Z,20.072327
2019-01-08T00:05:57.612Z,20.072327
2019-01-08T00:06:02.048Z,20.042114
2019-01-08T00:06:05.485Z,20.042114
2019-01-08T00:06:08.929Z,20.042114
2019-01-08T00:06:12.372Z,20.042114
2019-01-08T00:06:16.809Z,20.072327
2019-01-08T00:06:20.257Z,20.042114
2019-01-08T00:06:23.692Z,20.042114
2019-01-08T00:06:27.141Z,20.042114
2019-01-08T00:06:30.591Z,20.042114
2019-01-08T00:06:34.038Z,20.072327
2019-01-08T00:06:37.474Z,20.042114
2019-01-08T00:06:40.912Z,20.042114
2019-01-08T00:06:44.382Z,20.072327
2019-01-08T00:06:47.838Z,20.042114
2019-01-08T00:06:51.299Z,20.042114
2019-01-08T00:06:54.728Z,20.042114
2019-01-08T00:06:58.167Z,20.072327
2019-01-08T00:07:01.611Z,20.072327
2019-01-08T00:07:05.058Z,20.042114
2019-01-08T00:07:08.518Z,20.042114
2019-01-08T00:07:12.021Z,20.032043
2019-01-08T00:07:15.474Z,20.042114
2019-01-08T00:07:19.911Z,20.042114
2019-01-08T00:07:23.353Z,20.072327
2019-01-08T00:07:26.812Z,20.072327
2019-01-08T00:07:31.260Z,20.042114
2019-01-08T00:07:34.715Z,20.072327
2019-01-08T00:07:38.184Z,20.082397
2019-01-08T00:07:42.612Z,20.072327
2019-01-08T00:07:46.047Z,20.042114
2019-01-08T00:07:49.502Z,20.042114
2019-01-08T00:07:52.962Z,20.072327
2019-01-08T00:07:56.403Z,20.072327
2019-01-08T00:07:59.888Z,20.042114
2019-01-08T00:08:03.347Z,20.072327
2019-01-08T00:08:06.785Z,20.042114
2019-01-08T00:08:10.233Z,20.072327
2019-01-08T00:08:13.672Z,20.072327
2019-01-08T00:08:17.243Z,20.042114
2019-01-08T00:08:21.544Z,20.072327
2019-01-08T00:08:25.008Z,20.072327
2019-01-08T00:08:28.454Z,20.042114
2019-01-08T00:08:31.910Z,20.072327
2019-01-08T00:08:35.359Z,20.072327
2019-01-08T00:08:38.797Z,20.072327
2019-01-08T00:08:43.228Z,20.072327
2019-01-08T00:08:46.703Z,20.072327
2019-01-08T00:08:50.150Z,20.042114
2019-01-08T00:08:53.587Z,20.072327
2019-01-08T00:08:57.031Z,20.072327
2019-01-08T00:09:00.470Z,20.072327
2019-01-08T00:09:03.918Z,20.082397
2019-01-08T00:09:07.386Z,20.082397
2019-01-08T00:09:10.827Z,20.072327
2019-01-08T00:09:14.288Z,20.072327
2019-01-08T00:09:17.725Z,20.042114
2019-01-08T00:09:21.180Z,20.072327
2019-01-08T00:09:24.629Z,20.072327
2019-01-08T00:09:28.073Z,20.082397
2019-01-08T00:09:31.505Z,20.072327
2019-01-08T00:09:34.959Z,20.072327
2019-01-08T00:09:38.399Z,20.072327
2019-01-08T00:09:41.855Z,20.072327
2019-01-08T00:09:45.311Z,20.072327
2019-01-08T00:09:48.772Z,20.072327
2019-01-08T00:09:52.217Z,20.072327
2019-01-08T00:09:55.666Z,20.072327
2019-01-08T00:09:59.109Z,20.072327
2019-01-08T00:10:02.588Z,20.042114
2019-01-08T00:10:06.028Z,20.072327
2019-01-08T00:10:09.474Z,20.082397
2019-01-08T00:10:12.931Z,20.072327
2019-01-08T00:10:16.417Z,20.072327
2019-01-08T00:10:19.851Z,20.082397
2019-01-08T00:10:23.296Z,20.082397
2019-01-08T00:10:26.729Z,20.072327
2019-01-08T00:10:30.153Z,20.072327
2019-01-08T00:10:33.620Z,20.072327
2019-01-08T00:10:37.060Z,20.082397
2019-01-08T00:10:40.528Z,20.072327
2019-01-08T00:10:43.967Z,20.072327
2019-01-08T00:10:47.409Z,20.082397
2019-01-08T00:10:50.870Z,20.082397
2019-01-08T00:10:54.296Z,20.042114
2019-01-08T00:10:57.734Z,20.082397
2019-01-08T00:11:01.179Z,20.072327
2019-01-08T00:11:04.611Z,20.082397
2019-01-08T00:11:08.065Z,20.072327
2019-01-08T00:11:11.514Z,20.102539
2019-01-08T00:11:14.956Z,20.082397
2019-01-08T00:11:18.398Z,20.072327
2019-01-08T00:11:21.848Z,20.102539
2019-01-08T00:11:25.274Z,20.082397
2019-01-08T00:11:28.710Z,20.072327
2019-01-08T00:11:32.144Z,20.072327
2019-01-08T00:11:35.594Z,20.072327
2019-01-08T00:11:39.042Z,20.082397
2019-01-08T00:11:42.498Z,20.082397
2019-01-08T00:11:45.945Z,20.072327
2019-01-08T00:11:49.401Z,20.072327
2019-01-08T00:11:52.854Z,20.072327
2019-01-08T00:11:56.298Z,20.082397
2019-01-08T00:11:59.734Z,20.072327
2019-01-08T00:12:03.171Z,20.072327
2019-01-08T00:12:06.620Z,20.042114
2019-01-08T00:12:10.062Z,20.082397
2019-01-08T00:12:13.494Z,20.072327
2019-01-08T00:12:16.942Z,20.072327
2019-01-08T00:12:20.369Z,20.072327
2019-01-08T00:12:23.836Z,20.072327
2019-01-08T00:12:27.311Z,20.072327
2019-01-08T00:12:30.770Z,20.082397
2019-01-08T00:12:34.196Z,20.082397
2019-01-08T00:12:37.679Z,20.082397
2019-01-08T00:12:41.118Z,20.072327
2019-01-08T00:12:44.569Z,20.072327
2019-01-08T00:12:48.001Z,20.072327
2019-01-08T00:12:51.451Z,20.072327
2019-01-08T00:12:54.891Z,20.082397
2019-01-08T00:12:58.339Z,20.072327
2019-01-08T00:13:01.773Z,20.082397
2019-01-08T00:13:05.236Z,20.082397
2019-01-08T00:13:08.665Z,20.082397
2019-01-08T00:13:12.098Z,20.072327
2019-01-08T00:13:16.528Z,20.082397
2019-01-08T00:13:19.983Z,20.082397
2019-01-08T00:13:23.420Z,20.072327
2019-01-08T00:13:26.875Z,20.102539
2019-01-08T00:13:30.315Z,20.082397
2019-01-08T00:13:33.751Z,20.082397
2019-01-08T00:13:37.184Z,20.082397
2019-01-08T00:13:40.615Z,20.082397
2019-01-08T00:13:44.098Z,20.072327
2019-01-08T00:13:47.573Z,20.082397
2019-01-08T00:13:51.029Z,20.072327
2019-01-08T00:13:54.475Z,20.082397
2019-01-08T00:13:57.904Z,20.082397
2019-01-08T00:14:02.346Z,20.072327
2019-01-08T00:14:05.768Z,20.082397
2019-01-08T00:14:09.223Z,20.082397
2019-01-08T00:14:12.663Z,20.082397
2019-01-08T00:14:16.110Z,20.072327
2019-01-08T00:14:19.591Z,20.072327
2019-01-08T00:14:23.025Z,20.072327
2019-01-08T00:14:26.466Z,20.082397
2019-01-08T00:14:29.918Z,20.082397
2019-01-08T00:14:33.386Z,20.082397
2019-01-08T00:14:36.996Z,20.072327
2019-01-08T00:14:40.436Z,20.082397
2019-01-08T00:14:43.889Z,20.082397
2019-01-08T00:14:47.323Z,20.072327
2019-01-08T00:14:50.758Z,20.072327
2019-01-08T00:14:54.201Z,20.082397
2019-01-08T00:14:58.640Z,20.082397
2019-01-08T00:15:02.084Z,20.072327
2019-01-08T00:15:05.514Z,20.082397
2019-01-08T00:15:08.968Z,20.082397
2019-01-08T00:15:12.408Z,20.082397
2019-01-08T00:15:15.844Z,20.072327
2019-01-08T00:15:19.300Z,20.082397
2019-01-08T00:15:22.739Z,20.072327
2019-01-08T00:15:26.199Z,20.082397
2019-01-08T00:15:29.656Z,20.102539
2019-01-08T00:15:33.100Z,20.082397
2019-01-08T00:15:36.547Z,20.082397
2019-01-08T00:15:39.976Z,20.082397
2019-01-08T00:15:43.431Z,20.082397
2019-01-08T00:15:46.883Z,20.102539
2019-01-08T00:15:50.336Z,20.082397
2019-01-08T00:15:53.770Z,20.082397
2019-01-08T00:15:57.209Z,20.072327
2019-01-08T00:16:00.647Z,20.082397
2019-01-08T00:16:04.093Z,20.082397
2019-01-08T00:16:07.556Z,20.082397
2019-01-08T00:16:11.018Z,20.082397
2019-01-08T00:16:14.476Z,20.082397
2019-01-08T00:16:17.921Z,20.082397
2019-01-08T00:16:21.358Z,20.102539
2019-01-08T00:16:24.798Z,20.082397
2019-01-08T00:16:28.233Z,20.102539
2019-01-08T00:16:31.673Z,20.082397
2019-01-08T00:16:35.108Z,20.082397
2019-01-08T00:16:38.544Z,20.102539
2019-01-08T00:16:41.975Z,20.082397
2019-01-08T00:16:45.445Z,20.082397
2019-01-08T00:16:48.879Z,20.082397
2019-01-08T00:16:52.311Z,20.082397
2019-01-08T00:16:55.755Z,20.082397
2019-01-08T00:16:59.201Z,20.082397
2019-01-08T00:17:02.651Z,20.082397
2019-01-08T00:17:06.092Z,20.082397
2019-01-08T00:17:10.523Z,20.072327
2019-01-08T00:17:13.960Z,20.102539
2019-01-08T00:17:17.420Z,20.082397
2019-01-08T00:17:20.843Z,20.082397
2019-01-08T00:17:24.281Z,20.082397
2019-01-08T00:17:27.724Z,20.082397
2019-01-08T00:17:31.162Z,20.082397
2019-01-08T00:17:34.604Z,20.102539
2019-01-08T00:17:38.045Z,20.102539
2019-01-08T00:17:41.474Z,20.102539
2019-01-08T00:17:44.930Z,20.082397
2019-01-08T00:17:48.385Z,20.082397
2019-01-08T00:17:51.822Z,20.082397
2019-01-08T00:17:55.267Z,20.102539
2019-01-08T00:17:59.706Z,20.102539
2019-01-08T00:18:03.141Z,20.082397
2019-01-08T00:18:06.607Z,20.082397
2019-01-08T00:18:10.055Z,20.082397
2019-01-08T00:18:13.503Z,20.102539
2019-01-08T00:18:17.012Z,20.082397
2019-01-08T00:18:21.419Z,20.082397
2019-01-08T00:18:24.867Z,20.102539
2019-01-08T00:18:28.308Z,20.082397
2019-01-08T00:18:31.753Z,20.082397
2019-01-08T00:18:35.206Z,20.102539
2019-01-08T00:18:38.646Z,20.082397
2019-01-08T00:18:42.083Z,20.072327
2019-01-08T00:18:46.524Z,20.082397
2019-01-08T00:18:49.988Z,20.082397
2019-01-08T00:18:53.416Z,20.102539
2019-01-08T00:18:58.305Z,20.082397
2019-01-08T00:19:01.277Z,20.102539
2019-01-08T00:19:04.705Z,20.102539
2019-01-08T00:19:08.156Z,20.082397
2019-01-08T00:19:11.597Z,20.082397
2019-01-08T00:19:16.025Z,20.102539
2019-01-08T00:19:19.462Z,20.102539
2019-01-08T00:19:22.891Z,20.082397
2019-01-08T00:19:26.339Z,20.082397
2019-01-08T00:19:29.774Z,20.082397
2019-01-08T00:19:33.211Z,20.082397
2019-01-08T00:19:36.655Z,20.102539
2019-01-08T00:19:40.087Z,20.102539
2019-01-08T00:19:43.528Z,20.082397
2019-01-08T00:19:46.992Z,20.102539
2019-01-08T00:19:50.451Z,20.082397
2019-01-08T00:19:53.901Z,20.102539
2019-01-08T00:19:57.340Z,20.082397
2019-01-08T00:20:00.789Z,20.102539
2019-01-08T00:20:04.217Z,20.082397
2019-01-08T00:20:07.656Z,20.102539
2019-01-08T00:20:11.095Z,20.082397
2019-01-08T00:20:14.539Z,20.102539
2019-01-08T00:20:18.035Z,20.082397
2019-01-08T00:20:21.484Z,20.102539
2019-01-08T00:20:24.926Z,20.102539
2019-01-08T00:20:28.370Z,20.082397
2019-01-08T00:20:31.811Z,20.082397
2019-01-08T00:20:35.251Z,20.102539
2019-01-08T00:20:38.694Z,20.102539
2019-01-08T00:20:42.134Z,20.102539
2019-01-08T00:20:45.580Z,20.082397
2019-01-08T00:20:49.024Z,20.102539
2019-01-08T00:20:52.461Z,20.102539
2019-01-08T00:20:55.895Z,20.082397
2019-01-08T00:20:59.352Z,20.102539
2019-01-08T00:21:02.790Z,20.102539
2019-01-08T00:21:06.233Z,20.102539
2019-01-08T00:21:09.679Z,20.102539
2019-01-08T00:21:13.116Z,20.102539
2019-01-08T00:21:16.552Z,20.102539
2019-01-08T00:21:20.997Z,20.082397
2019-01-08T00:21:24.441Z,20.082397
2019-01-08T00:21:27.893Z,20.082397
2019-01-08T00:21:31.334Z,20.102539
2019-01-08T00:21:34.778Z,20.082397
2019-01-08T00:21:38.250Z,20.102539
2019-01-08T00:21:41.669Z,20.102539
2019-01-08T00:21:45.109Z,20.082397
2019-01-08T00:21:48.558Z,20.102539
2019-01-08T00:21:52.003Z,20.102539
2019-01-08T00:21:55.454Z,20.102539
2019-01-08T00:21:58.893Z,20.11261
2019-01-08T00:22:02.325Z,20.102539
2019-01-08T00:22:05.766Z,20.102539
2019-01-08T00:22:09.214Z,20.102539
2019-01-08T00:22:12.649Z,20.11261
2019-01-08T00:22:16.107Z,20.102539
2019-01-08T00:22:19.737Z,20.102539
2019-01-08T00:22:23.468Z,20.082397
2019-01-08T00:22:26.910Z,20.102539
2019-01-08T00:22:30.344Z,20.102539
2019-01-08T00:22:33.802Z,20.102539
2019-01-08T00:22:37.282Z,20.102539
2019-01-08T00:22:40.713Z,20.102539
2019-01-08T00:22:44.188Z,20.102539
2019-01-08T00:22:47.611Z,20.102539
2019-01-08T00:22:51.046Z,20.102539
2019-01-08T00:22:54.491Z,20.11261
2019-01-08T00:22:57.933Z,20.082397
2019-01-08T00:23:01.379Z,20.102539
2019-01-08T00:23:04.817Z,20.102539
2019-01-08T00:23:08.246Z,20.102539
2019-01-08T00:23:11.702Z,20.102539
2019-01-08T00:23:15.149Z,20.102539
2019-01-08T00:23:18.584Z,20.102539
2019-01-08T00:23:22.021Z,20.102539
2019-01-08T00:23:25.466Z,20.102539
2019-01-08T00:23:28.987Z,20.102539
2019-01-08T00:23:32.348Z,20.102539
2019-01-08T00:23:35.795Z,20.102539
2019-01-08T00:23:39.236Z,20.102539
2019-01-08T00:23:42.718Z,20.102539
2019-01-08T00:23:46.174Z,20.082397
2019-01-08T00:23:49.604Z,20.102539
2019-01-08T00:23:53.049Z,20.11261
2019-01-08T00:23:56.480Z,20.102539
2019-01-08T00:23:59.912Z,20.102539
2019-01-08T00:24:03.379Z,20.11261
2019-01-08T00:24:06.810Z,20.082397
2019-01-08T00:24:10.302Z,20.082397
2019-01-08T00:24:13.716Z,20.082397
2019-01-08T00:24:18.157Z,20.102539
2019-01-08T00:24:21.590Z,20.102539
2019-01-08T00:24:25.039Z,20.082397
2019-01-08T00:24:28.487Z,20.11261
2019-01-08T00:24:31.913Z,20.102539
2019-01-08T00:24:35.351Z,20.102539
2019-01-08T00:24:38.786Z,20.102539
2019-01-08T00:24:42.226Z,20.102539
2019-01-08T00:24:45.698Z,20.102539
2019-01-08T00:24:49.125Z,20.11261
2019-01-08T00:24:52.571Z,20.102539
2019-01-08T00:24:56.009Z,20.11261
2019-01-08T00:24:59.713Z,20.102539
2019-01-08T00:25:04.130Z,20.11261
2019-01-08T00:25:07.558Z,20.102539
2019-01-08T00:25:10.996Z,20.102539
2019-01-08T00:25:14.451Z,20.102539
2019-01-08T00:25:17.873Z,20.102539
2019-01-08T00:25:21.319Z,20.102539
2019-01-08T00:25:24.750Z,20.102539
2019-01-08T00:25:28.189Z,20.102539
2019-01-08T00:25:31.627Z,20.11261
2019-01-08T00:25:35.068Z,20.082397
2019-01-08T00:25:38.518Z,20.102539
2019-01-08T00:25:41.959Z,20.102539
2019-01-08T00:25:45.398Z,20.102539
2019-01-08T00:25:48.839Z,20.11261
2019-01-08T00:25:52.280Z,20.102539
2019-01-08T00:25:55.728Z,20.102539
2019-01-08T00:25:59.167Z,20.11261
2019-01-08T00:26:02.599Z,20.11261
2019-01-08T00:26:06.043Z,20.11261
2019-01-08T00:26:09.490Z,20.11261
2019-01-08T00:26:12.917Z,20.102539
2019-01-08T00:26:16.357Z,20.102539
2019-01-08T00:26:19.791Z,20.102539
2019-01-08T00:26:23.233Z,20.082397
2019-01-08T00:26:26.669Z,20.102539
2019-01-08T00:26:30.107Z,20.102539
2019-01-08T00:26:33.547Z,20.102539
2019-01-08T00:26:36.983Z,20.102539
2019-01-08T00:26:40.426Z,20.102539
2019-01-08T00:26:43.867Z,20.11261
2019-01-08T00:26:47.319Z,20.102539
2019-01-08T00:26:50.751Z,20.082397
2019-01-08T00:26:54.203Z,20.122681
2019-01-08T00:26:57.636Z,20.11261
2019-01-08T00:27:01.092Z,20.11261
2019-01-08T00:27:04.524Z,20.11261
2019-01-08T00:27:08.954Z,20.102539
2019-01-08T00:27:12.400Z,20.102539
2019-01-08T00:27:15.848Z,20.11261
2019-01-08T00:27:19.289Z,20.102539
2019-01-08T00:27:22.720Z,20.11261
2019-01-08T00:27:26.165Z,20.102539
2019-01-08T00:27:29.602Z,20.102539
2019-01-08T00:27:33.043Z,20.11261
2019-01-08T00:27:36.499Z,20.102539
2019-01-08T00:27:42.936Z,20.102539
2019-01-08T00:27:46.411Z,20.11261
2019-01-08T00:27:49.851Z,20.11261
2019-01-08T00:27:53.285Z,20.102539
2019-01-08T00:27:56.722Z,20.11261
2019-01-08T00:28:01.145Z,20.11261
2019-01-08T00:28:04.590Z,20.102539
2019-01-08T00:28:08.031Z,20.102539
2019-01-08T00:28:12.467Z,20.11261
2019-01-08T00:28:15.912Z,20.102539
2019-01-08T00:28:19.350Z,20.11261
2019-01-08T00:28:22.788Z,20.11261
2019-01-08T00:28:26.228Z,20.11261
2019-01-08T00:28:30.676Z,20.11261
2019-01-08T00:28:34.095Z,20.102539
2019-01-08T00:28:43.166Z,20.102539
2019-01-08T00:28:44.964Z,20.102539
2019-01-08T00:28:48.422Z,20.11261
2019-01-08T00:28:51.850Z,20.11261
2019-01-08T00:28:55.295Z,20.11261
2019-01-08T00:28:58.744Z,20.11261
2019-01-08T00:29:02.166Z,20.122681
2019-01-08T00:29:05.615Z,20.11261
2019-01-08T00:29:10.028Z,20.102539
2019-01-08T00:29:13.471Z,20.11261
2019-01-08T00:29:16.921Z,20.11261
2019-01-08T00:29:20.370Z,20.11261
2019-01-08T00:29:23.826Z,20.11261
2019-01-08T00:29:27.254Z,20.11261
2019-01-08T00:29:30.719Z,20.11261
2019-01-08T00:29:34.164Z,20.11261
2019-01-08T00:29:37.613Z,20.11261
2019-01-08T00:29:41.061Z,20.11261
2019-01-08T00:29:44.504Z,20.11261
2019-01-08T00:29:47.947Z,20.102539
2019-01-08T00:29:51.381Z,20.11261
2019-01-08T00:29:54.853Z,20.122681
2019-01-08T00:29:58.287Z,20.11261
2019-01-08T00:30:01.720Z,20.122681
2019-01-08T00:30:05.156Z,20.102539
2019-01-08T00:30:08.620Z,20.122681
2019-01-08T00:30:12.049Z,20.11261
2019-01-08T00:30:16.475Z,20.11261
2019-01-08T00:30:19.912Z,20.122681
2019-01-08T00:30:23.375Z,20.11261
2019-01-08T00:30:26.815Z,20.122681
2019-01-08T00:30:30.252Z,20.11261
2019-01-08T00:30:33.686Z,20.11261
2019-01-08T00:30:37.135Z,20.11261
2019-01-08T00:30:40.581Z,20.11261
2019-01-08T00:30:44.021Z,20.122681
2019-01-08T00:30:47.462Z,20.11261
2019-01-08T00:30:50.900Z,20.11261
2019-01-08T00:30:55.332Z,20.11261
2019-01-08T00:30:58.764Z,20.11261
2019-01-08T00:31:02.194Z,20.122681
2019-01-08T00:31:06.788Z,20.11261
2019-01-08T00:31:10.212Z,20.11261
2019-01-08T00:31:13.656Z,20.11261
2019-01-08T00:31:17.112Z,20.122681
2019-01-08T00:31:20.547Z,20.102539
2019-01-08T00:31:23.980Z,20.11261
2019-01-08T00:31:27.426Z,20.122681
2019-01-08T00:31:30.906Z,20.122681
2019-01-08T00:31:34.359Z,20.11261
2019-01-08T00:31:37.831Z,20.11261
2019-01-08T00:31:41.282Z,20.102539
2019-01-08T00:31:44.850Z,20.11261
2019-01-08T00:31:48.286Z,20.11261
2019-01-08T00:31:51.723Z,20.122681
2019-01-08T00:31:55.162Z,20.11261
2019-01-08T00:31:58.617Z,20.11261
2019-01-08T00:32:03.050Z,20.11261
2019-01-08T00:32:06.516Z,20.11261
2019-01-08T00:32:09.950Z,20.11261
2019-01-08T00:32:13.388Z,20.122681
2019-01-08T00:32:16.826Z,20.11261
2019-01-08T00:32:20.276Z,20.11261
2019-01-08T00:32:23.713Z,20.11261
2019-01-08T00:32:27.151Z,20.102539
2019-01-08T00:32:30.584Z,20.102539
2019-01-08T00:32:34.028Z,20.11261
2019-01-08T00:32:37.465Z,20.11261
2019-01-08T00:32:40.901Z,20.122681
2019-01-08T00:32:44.339Z,20.102539
2019-01-08T00:32:47.786Z,20.122681
2019-01-08T00:32:51.232Z,20.11261
2019-01-08T00:32:55.681Z,20.11261
2019-01-08T00:32:59.143Z,20.11261
2019-01-08T00:33:02.582Z,20.122681
2019-01-08T00:33:06.017Z,20.122681
2019-01-08T00:33:09.471Z,20.102539
2019-01-08T00:33:12.903Z,20.122681
2019-01-08T00:33:16.353Z,20.11261
2019-01-08T00:33:19.795Z,20.11261
2019-01-08T00:33:23.241Z,20.122681
2019-01-08T00:33:26.678Z,20.11261
2019-01-08T00:33:30.112Z,20.11261
2019-01-08T00:33:33.552Z,20.122681
2019-01-08T00:33:37.017Z,20.11261
2019-01-08T00:33:40.456Z,20.11261
2019-01-08T00:33:43.901Z,20.11261
2019-01-08T00:33:47.340Z,20.11261
2019-01-08T00:33:50.785Z,20.11261
2019-01-08T00:33:54.229Z,20.122681
2019-01-08T00:33:57.703Z,20.11261
2019-01-08T00:34:01.108Z,20.102539
2019-01-08T00:34:04.549Z,20.122681
2019-01-08T00:34:07.995Z,20.102539
2019-01-08T00:34:11.432Z,20.122681
2019-01-08T00:34:14.867Z,20.11261
2019-01-08T00:34:18.323Z,20.122681
2019-01-08T00:34:21.757Z,20.122681
2019-01-08T00:34:25.193Z,20.11261
2019-01-08T00:34:28.653Z,20.122681
2019-01-08T00:34:32.087Z,20.122681
2019-01-08T00:34:35.526Z,20.11261
2019-01-08T00:34:38.961Z,20.122681
2019-01-08T00:34:42.404Z,20.11261
2019-01-08T00:34:45.866Z,20.11261
2019-01-08T00:34:49.305Z,20.11261
2019-01-08T00:34:52.752Z,20.11261
2019-01-08T00:34:56.202Z,20.11261
2019-01-08T00:34:59.631Z,20.11261
2019-01-08T00:35:03.143Z,20.122681
2019-01-08T00:35:06.584Z,20.122681
2019-01-08T00:35:10.019Z,20.122681
2019-01-08T00:35:13.453Z,20.122681
2019-01-08T00:35:16.911Z,20.122681
2019-01-08T00:35:20.346Z,20.11261
2019-01-08T00:35:23.776Z,20.11261
2019-01-08T00:35:27.223Z,20.11261
2019-01-08T00:35:30.670Z,20.122681
2019-01-08T00:35:34.111Z,20.11261
2019-01-08T00:35:37.543Z,20.122681
2019-01-08T00:35:41.001Z,20.122681
2019-01-08T00:35:45.464Z,20.122681
2019-01-08T00:35:48.917Z,20.122681
2019-01-08T00:35:52.355Z,20.11261
2019-01-08T00:35:55.793Z,20.122681
2019-01-08T00:36:00.226Z,20.11261
2019-01-08T00:36:03.662Z,20.122681
2019-01-08T00:36:07.097Z,20.122681
2019-01-08T00:36:10.545Z,20.122681
2019-01-08T00:36:13.992Z,20.11261
2019-01-08T00:36:17.428Z,20.122681
2019-01-08T00:36:20.872Z,20.122681
2019-01-08T00:36:24.309Z,20.11261
2019-01-08T00:36:27.747Z,20.11261
2019-01-08T00:36:31.207Z,20.122681
2019-01-08T00:36:34.649Z,20.11261
2019-01-08T00:36:38.079Z,20.11261
2019-01-08T00:36:41.522Z,20.122681
2019-01-08T00:36:44.970Z,20.122681
2019-01-08T00:36:48.402Z,20.122681
2019-01-08T00:36:51.844Z,20.122681
2019-01-08T00:36:55.274Z,20.11261
2019-01-08T00:36:58.724Z,20.122681
2019-01-08T00:37:02.161Z,20.122681
2019-01-08T00:37:05.608Z,20.122681
2019-01-08T00:37:09.043Z,20.102539
2019-01-08T00:37:12.505Z,20.122681
2019-01-08T00:37:15.941Z,20.122681
2019-01-08T00:37:19.385Z,20.11261
2019-01-08T00:37:22.811Z,20.122681
2019-01-08T00:37:26.251Z,20.122681
2019-01-08T00:37:29.690Z,20.11261
2019-01-08T00:37:33.126Z,20.11261
2019-01-08T00:37:36.567Z,20.11261
2019-01-08T00:37:40.004Z,20.122681
2019-01-08T00:37:43.439Z,20.122681
2019-01-08T00:37:47.925Z,20.122681
2019-01-08T00:37:51.367Z,20.11261
2019-01-08T00:37:54.814Z,20.122681
2019-01-08T00:37:58.274Z,20.122681
2019-01-08T00:38:01.713Z,20.122681
2019-01-08T00:38:05.147Z,20.122681
2019-01-08T00:38:08.589Z,20.122681
2019-01-08T00:38:12.029Z,20.11261
2019-01-08T00:38:15.457Z,20.122681
2019-01-08T00:38:18.904Z,20.11261
2019-01-08T00:38:22.340Z,20.122681
2019-01-08T00:38:25.797Z,20.11261
2019-01-08T00:38:29.228Z,20.11261
2019-01-08T00:38:32.665Z,20.122681
2019-01-08T00:38:36.112Z,20.122681
2019-01-08T00:38:39.548Z,20.11261
2019-01-08T00:38:42.989Z,20.122681
2019-01-08T00:38:46.443Z,20.142822
2019-01-08T00:38:49.881Z,20.122681
2019-01-08T00:38:53.315Z,20.122681
2019-01-08T00:38:56.748Z,20.11261
2019-01-08T00:39:01.183Z,20.122681
2019-01-08T00:39:04.617Z,20.122681
2019-01-08T00:39:08.054Z,20.11261
2019-01-08T00:39:11.491Z,20.122681
2019-01-08T00:39:14.927Z,20.142822
2019-01-08T00:39:18.369Z,20.122681
2019-01-08T00:39:21.835Z,20.122681
2019-01-08T00:39:25.272Z,20.122681
2019-01-08T00:39:28.703Z,20.122681
2019-01-08T00:39:32.143Z,20.122681
2019-01-08T00:39:35.606Z,20.122681
2019-01-08T00:39:39.033Z,20.122681
2019-01-08T00:39:42.484Z,20.122681
2019-01-08T00:39:45.904Z,20.11261
2019-01-08T00:39:49.349Z,20.122681
2019-01-08T00:39:52.793Z,20.122681
2019-01-08T00:39:56.215Z,20.122681
2019-01-08T00:39:59.654Z,20.122681
2019-01-08T00:40:03.097Z,20.122681
2019-01-08T00:40:06.534Z,20.122681
2019-01-08T00:40:09.976Z,20.122681